• Join FlightAware (Why Join?)
  • Login
  • US Flag 
11:44PM EDT


 

Airport Tracker/Info


-or-


 

Live Flight TrackerFlight Track Log ✈ JIA2342 ✈ 18-Jul-2013 ✈ KDCA - KALB

Flight Track Log - Related Links

Times and Time Zones

All times are in EDT time to prevent confusion due to time zone crossing. See the JIA2342 flight status page for this flight to view local times or setup timezone preferences in your user account.

Time Position Orientation Groundspeed Altitude Reporting Facility
EDT Latitude Longitude Course Direction KTS MPH feet Rate Location/Type
07:41PM 38.8333 -77.0333 61° Northeast 163 188 800  Level Potomac TRACON
07:42PM 38.7833 -77.0167 165° South 225 259 2,600 1,560 Climbing Potomac TRACON
07:43PM 38.8000 -76.9333 76° East 280 322 4,000 1,860 Climbing Potomac TRACON
07:44PM 38.9782 -76.6602 57° Northeast  Level FlightAware Approximate
07:44PM 38.8608 -76.8472 48° Northeast 278 320 6,700  Level Washington Center
07:45PM 39.0271 -76.5355 67° East  Level FlightAware Approximate
07:45PM 38.9014 -76.7600 59° Northeast 290 334 9,000  Level Washington Center
07:46PM 39.0764 -76.4106 61° Northeast  Level FlightAware Approximate
07:46PM 38.9500 -76.6833 51° Northeast 298 343 10,700  Level Potomac TRACON
07:48PM 39.0353 -76.4789 62° Northeast 295 339 14,300 1,560 Climbing Washington Center
07:49PM 39.0817 -76.3806 59° Northeast 307 353 15,900 1,440 Climbing Washington Center
07:50PM 39.1281 -76.2819 59° Northeast 318 366 17,300 1,260 Climbing Washington Center
07:51PM 39.1558 -76.1672 73° East 318 366 18,400 1,080 Climbing Washington Center
07:52PM 39.1708 -76.0575 80° East 328 377 19,500 780 Climbing Washington Center
07:53PM 39.1858 -75.9344 81° East 340 391 20,100 900 Climbing Washington Center
07:54PM 39.2342 -75.8275 60° Northeast 340 391 21,300 1,200 Climbing Washington Center
07:55PM 39.3050 -75.7364 45° Northeast 338 389 22,500 1,080 Climbing Washington Center
07:56PM 39.3739 -75.6453 46° Northeast 351 404 23,500 900 Climbing Washington Center
07:57PM 39.4469 -75.5539 44° Northeast 351 404 24,400 660 Climbing Washington Center
07:58PM 39.5197 -75.4569 46° Northeast 356 410 24,900 480 Climbing Washington Center
07:59PM 39.5944 -75.3600 45° Northeast 362 417 25,400 480 Climbing Washington Center
08:00PM 39.6694 -75.2600 46° Northeast 373 429 25,900 480 Climbing Washington Center
08:01PM 39.7136 -75.1994 47° Northeast 386 444 26,200 600 Climbing New York Center
08:02PM 39.7972 -75.0778 48° Northeast 398 458 26,900 540 Climbing New York Center
08:03PM 39.8722 -74.9661 49° Northeast 403 464 27,400 480 Climbing New York Center
08:04PM 39.9464 -74.8675 46° Northeast 396 456 27,900 480 Climbing New York Center
08:05PM 40.0292 -74.7667 43° Northeast 396 456 28,400 420 Climbing New York Center
08:06PM 40.1031 -74.6786 42° Northeast 401 461 28,800 240 Climbing New York Center
08:07PM 40.1961 -74.5697 42° Northeast 401 461 29,000 60 Climbing New York Center
08:08PM 40.2850 -74.4658 42° Northeast 401 461 29,000 -180 Level New York Center
08:09PM 40.3694 -74.3642 43° Northeast 406 467 28,700 -780 Descending New York Center
08:10PM 40.4603 -74.2544 43° Northeast 416 479 27,500 -1,200 Descending New York Center
08:11PM 40.5531 -74.1444 42° Northeast 428 493 26,400 -1,140 Descending New York Center
08:12PM 40.6478 -74.0342 41° Northeast 433 498 25,300 -1,080 Descending New York Center
08:13PM 40.7361 -73.9233 44° Northeast 434 499 24,200 -660 Descending New York Center
08:14PM 40.8200 -73.8314 40° Northeast 434 499 24,000 -120 Descending New York Center
08:16PM 40.9664 -73.6386 45° Northeast 434 499 24,000 -240 Level Boston Center
08:17PM 41.0717 -73.5358 36° Northeast 429 494 23,400 -900 Descending Boston Center
08:18PM 41.1889 -73.4911 16° North 418 481 22,300 -1,080 Descending Boston Center
08:19PM 41.3058 -73.4458 16° North 418 481 21,300 -1,260 Descending Boston Center
08:20PM 41.4247 -73.4422 North 432 497 19,800 -1,620 Descending Boston Center
08:21PM 41.5225 -73.4578 353° North 414 476 18,100 -1,500 Descending Boston Center
08:22PM 41.6392 -73.4706 355° North 395 455 16,800 -1,260 Descending Boston Center
08:23PM 41.7350 -73.4806 356° North 381 438 15,600 -1,320 Descending Boston Center
08:24PM 41.8703 -73.4967 355° North 381 438 13,900 -1,440 Descending Boston Center
08:25PM 41.9722 -73.5094 355° North 376 433 12,500 -1,380 Descending Boston Center
08:26PM 42.0722 -73.5253 353° North 366 421 11,200 -840 Descending Boston Center
08:27PM 42.1592 -73.5717 338° Northwest 340 391 10,900 -600 Descending Boston Center
08:28PM 42.2422 -73.6178 338° Northwest 329 379 10,100 -1,020 Descending Boston Center
08:28PM 42.2422 -73.6178 338° Northwest 295 339 9,900 -2,640 Descending Boston Center
08:29PM 42.3189 -73.6642 336° Northwest 265 305 7,200 -2,460 Descending Boston Center
08:30PM 42.3872 -73.7022 338° Northwest 263 303 4,800 -1,740 Descending Boston Center
08:31PM 42.4556 -73.7431 336° Northwest 236 272 3,600 -900 Descending Boston Center
08:32PM 42.5114 -73.7722 339° North 206 237 3,000 -300 Descending Boston Center
08:33PM 42.5653 -73.8017 338° Northwest 210 242 3,000 -300 Level Boston Center
08:34PM 42.6236 -73.8031 359° North 204 235 2,400 -600 Descending Boston Center